sensor_id;sensor_type;location;lat;lon;timestamp;pressure;altitude;pressure_sealevel;temperature;humidity
12073;BME280;6098;49.004;8.372;2024-02-21T00:00:58;101453.53;;;9.32;78.26
12073;BME280;6098;49.004;8.372;2024-02-21T00:15:48;101438.44;;;9.37;77.50
12073;BME280;6098;49.004;8.372;2024-02-21T00:30:41;101426.06;;;9.41;77.43
12073;BME280;6098;49.004;8.372;2024-02-21T00:45:33;101401.46;;;9.35;77.16
12073;BME280;6098;49.004;8.372;2024-02-21T01:00:24;101385.02;;;9.42;77.59
12073;BME280;6098;49.004;8.372;2024-02-21T01:15:15;101358.69;;;9.34;83.28
12073;BME280;6098;49.004;8.372;2024-02-21T01:30:07;101317.58;;;9.16;87.28
12073;BME280;6098;49.004;8.372;2024-02-21T01:45:00;101292.25;;;9.03;87.25
12073;BME280;6098;49.004;8.372;2024-02-21T01:59:52;101304.77;;;8.94;88.12
12073;BME280;6098;49.004;8.372;2024-02-21T02:14:43;101298.59;;;8.93;87.19
12073;BME280;6098;49.004;8.372;2024-02-21T02:29:35;101283.98;;;8.96;86.01
12073;BME280;6098;49.004;8.372;2024-02-21T02:44:26;101256.22;;;8.97;86.79
12073;BME280;6098;49.004;8.372;2024-02-21T02:59:18;101235.61;;;8.92;85.18
12073;BME280;6098;49.004;8.372;2024-02-21T03:14:09;101207.55;;;8.84;82.96
12073;BME280;6098;49.004;8.372;2024-02-21T03:29:01;101192.09;;;8.85;81.11
12073;BME280;6098;49.004;8.372;2024-02-21T03:43:52;101173.25;;;8.80;81.73
12073;BME280;6098;49.004;8.372;2024-02-21T03:58:43;101173.39;;;8.72;83.27
12073;BME280;6098;49.004;8.372;2024-02-21T04:13:34;101189.97;;;8.57;82.03
12073;BME280;6098;49.004;8.372;2024-02-21T04:28:25;101167.30;;;8.44;82.07
12073;BME280;6098;49.004;8.372;2024-02-21T04:43:17;101163.95;;;8.36;83.00
12073;BME280;6098;49.004;8.372;2024-02-21T04:58:07;101135.97;;;8.23;83.76
12073;BME280;6098;49.004;8.372;2024-02-21T05:12:58;101096.65;;;8.04;84.04
12073;BME280;6098;49.004;8.372;2024-02-21T05:27:50;101087.70;;;7.88;85.34
12073;BME280;6098;49.004;8.372;2024-02-21T05:42:40;101095.45;;;7.72;84.66
12073;BME280;6098;49.004;8.372;2024-02-21T05:57:31;101073.99;;;7.65;86.32
12073;BME280;6098;49.004;8.372;2024-02-21T06:12:24;101078.95;;;7.58;85.87
12073;BME280;6098;49.004;8.372;2024-02-21T06:27:15;101051.27;;;7.55;85.56
12073;BME280;6098;49.004;8.372;2024-02-21T06:42:06;101044.69;;;7.56;86.28
12073;BME280;6098;49.004;8.372;2024-02-21T06:56:56;101036.01;;;7.49;86.46
12073;BME280;6098;49.004;8.372;2024-02-21T07:11:49;101052.22;;;7.53;86.19
12073;BME280;6098;49.004;8.372;2024-02-21T07:26:41;101034.03;;;7.61;85.69
12073;BME280;6098;49.004;8.372;2024-02-21T07:41:32;101036.48;;;7.73;85.05
12073;BME280;6098;49.004;8.372;2024-02-21T07:56:27;101035.95;;;8.02;83.70
12073;BME280;6098;49.004;8.372;2024-02-21T08:11:16;101019.32;;;8.21;82.01
12073;BME280;6098;49.004;8.372;2024-02-21T08:26:09;100997.53;;;8.36;81.97
12073;BME280;6098;49.004;8.372;2024-02-21T08:41:01;100984.13;;;8.64;82.54
12073;BME280;6098;49.004;8.372;2024-02-21T08:55:53;100972.48;;;8.93;81.92
12073;BME280;6098;49.004;8.372;2024-02-21T09:10:46;100959.69;;;9.31;79.25
12073;BME280;6098;49.004;8.372;2024-02-21T09:25:38;100933.33;;;9.78;77.18
12073;BME280;6098;49.004;8.372;2024-02-21T09:40:32;100928.53;;;10.07;73.64
12073;BME280;6098;49.004;8.372;2024-02-21T09:55:24;100911.57;;;10.45;72.35
12073;BME280;6098;49.004;8.372;2024-02-21T10:10:16;100884.70;;;10.57;70.39
12073;BME280;6098;49.004;8.372;2024-02-21T10:25:10;100866.92;;;10.61;69.53
12073;BME280;6098;49.004;8.372;2024-02-21T10:40:05;100847.98;;;10.99;67.80
12073;BME280;6098;49.004;8.372;2024-02-21T10:55:03;100823.87;;;11.32;66.87
12073;BME280;6098;49.004;8.372;2024-02-21T11:09:55;100786.70;;;11.57;64.24
12073;BME280;6098;49.004;8.372;2024-02-21T11:24:47;100768.13;;;11.81;63.04
12073;BME280;6098;49.004;8.372;2024-02-21T11:39:38;100735.73;;;11.94;61.08
12073;BME280;6098;49.004;8.372;2024-02-21T11:54:29;100707.56;;;12.01;59.97
12073;BME280;6098;49.004;8.372;2024-02-21T12:09:22;100671.73;;;12.22;60.54
12073;BME280;6098;49.004;8.372;2024-02-21T12:24:20;100647.63;;;12.36;59.81
12073;BME280;6098;49.004;8.372;2024-02-21T12:39:10;100612.19;;;12.36;58.87
12073;BME280;6098;49.004;8.372;2024-02-21T12:54:01;100576.33;;;12.26;58.01
12073;BME280;6098;49.004;8.372;2024-02-21T13:08:51;100546.27;;;12.24;57.99
12073;BME280;6098;49.004;8.372;2024-02-21T13:23:43;100509.67;;;12.40;57.85
12073;BME280;6098;49.004;8.372;2024-02-21T13:38:52;100489.01;;;12.47;57.53
12073;BME280;6098;49.004;8.372;2024-02-21T13:54:41;100445.77;;;12.53;57.96
12073;BME280;6098;49.004;8.372;2024-02-21T14:10:59;100411.50;;;12.55;57.97
12073;BME280;6098;49.004;8.372;2024-02-21T14:26:58;100375.48;;;12.58;58.18
12073;BME280;6098;49.004;8.372;2024-02-21T14:43:18;100351.44;;;12.70;58.05
12073;BME280;6098;49.004;8.372;2024-02-21T15:14:50;100299.02;;;12.62;59.22
12073;BME280;6098;49.004;8.372;2024-02-21T15:29:40;100256.30;;;12.57;59.97
12073;BME280;6098;49.004;8.372;2024-02-21T15:44:31;100187.31;;;12.55;60.39
12073;BME280;6098;49.004;8.372;2024-02-21T15:59:23;100197.02;;;12.46;59.98
12073;BME280;6098;49.004;8.372;2024-02-21T16:14:15;100218.64;;;12.48;60.37
12073;BME280;6098;49.004;8.372;2024-02-21T16:29:07;100157.28;;;12.35;60.92
12073;BME280;6098;49.004;8.372;2024-02-21T16:43:58;100155.79;;;12.29;62.64
12073;BME280;6098;49.004;8.372;2024-02-21T16:58:50;100122.08;;;12.13;63.34
12073;BME280;6098;49.004;8.372;2024-02-21T17:13:42;100100.68;;;12.06;63.64
12073;BME280;6098;49.004;8.372;2024-02-21T17:28:32;100075.91;;;11.97;63.69
12073;BME280;6098;49.004;8.372;2024-02-21T17:43:24;100051.58;;;11.88;64.58
12073;BME280;6098;49.004;8.372;2024-02-21T17:58:15;100050.20;;;11.80;65.99
12073;BME280;6098;49.004;8.372;2024-02-21T18:13:07;100024.51;;;11.72;66.23
12073;BME280;6098;49.004;8.372;2024-02-21T18:27:58;99992.94;;;11.66;66.38
12073;BME280;6098;49.004;8.372;2024-02-21T18:42:51;99967.77;;;11.64;65.30
12073;BME280;6098;49.004;8.372;2024-02-21T18:57:45;99958.05;;;11.64;64.33
12073;BME280;6098;49.004;8.372;2024-02-21T19:12:37;99943.03;;;11.63;64.84
12073;BME280;6098;49.004;8.372;2024-02-21T19:27:29;99923.73;;;11.60;63.59
12073;BME280;6098;49.004;8.372;2024-02-21T19:42:21;99916.98;;;11.63;62.64
12073;BME280;6098;49.004;8.372;2024-02-21T19:57:13;99904.16;;;11.62;62.74
12073;BME280;6098;49.004;8.372;2024-02-21T20:12:04;99849.25;;;11.55;63.48
12073;BME280;6098;49.004;8.372;2024-02-21T20:26:57;99794.13;;;11.77;58.63
12073;BME280;6098;49.004;8.372;2024-02-21T20:41:50;99785.94;;;12.21;55.55
12073;BME280;6098;49.004;8.372;2024-02-21T20:56:41;99810.61;;;12.15;56.99
12073;BME280;6098;49.004;8.372;2024-02-21T21:11:32;99783.99;;;11.93;58.42
12073;BME280;6098;49.004;8.372;2024-02-21T21:26:24;99752.38;;;11.96;58.72
12073;BME280;6098;49.004;8.372;2024-02-21T21:41:15;99729.34;;;11.88;60.46
12073;BME280;6098;49.004;8.372;2024-02-21T21:56:06;99700.86;;;11.58;68.25
12073;BME280;6098;49.004;8.372;2024-02-21T22:10:56;99662.02;;;11.24;74.49
12073;BME280;6098;49.004;8.372;2024-02-21T22:25:48;99639.20;;;10.95;76.99
12073;BME280;6098;49.004;8.372;2024-02-21T22:40:52;99619.09;;;10.84;77.91
12073;BME280;6098;49.004;8.372;2024-02-21T22:55:44;99604.36;;;10.86;77.69
12073;BME280;6098;49.004;8.372;2024-02-21T23:10:39;99570.44;;;10.84;79.83
12073;BME280;6098;49.004;8.372;2024-02-21T23:25:35;99544.54;;;10.81;80.77
12073;BME280;6098;49.004;8.372;2024-02-21T23:40:39;99515.76;;;10.74;83.69
12073;BME280;6098;49.004;8.372;2024-02-21T23:55:32;99484.41;;;10.65;86.77
